NCAR-RAP Real-Time Weather Data

Output produced by METARs form (23 June 2018  19:30 UTC)
found at http://weather.rap.ucar.edu/surface/
 
RJFS 231900Z 33003KT 9999 FEW010 19/18 Q1007
RJFS 231800Z VRB02KT CAVOK 19/18 Q1006
RJFS 231700Z 29006KT 8000 NSC 19/18 Q1007
RJFS 231600Z 29006KT 8000 FEW030 19/19 Q1006
RJFS 231200Z 33002KT 9999 FEW015 SCT025 BKN035 21/19 Q1005
RJFS 231100Z 28004KT 9999 FEW015 SCT025 BKN035 21/19 Q1005
RJFS 231000Z 26005KT 9999 FEW015 SCT025 BKN035 21/18 Q1005
RJFS 230900Z 24006KT 9999 FEW015 SCT030 BKN040 22/18 Q1004
RJFS 230800Z 20004KT 9999 FEW015 SCT030 BKN040 22/19 Q1004
RJFS 230700Z VRB02KT 9999 -RA FEW020 BKN040 BKN080 22/19 Q1004
RJFS 230600Z 23006KT 200V270 9999 FEW015 SCT030 BKN040 22/20 Q1005
RJFS 230500Z 25003KT 190V290 9999 FEW020 SCT035 BKN045 22/19 Q1004
RJFS 230400Z VRB01KT 9999 FEW010 SCT020 BKN050 22/18 Q1005
RJFS 230300Z 26007KT 9999 FEW020 BKN050 BKN060 22/19 Q1005
RJFS 230200Z 27004KT 9999 FEW010 SCT020 BKN050 21/19 Q1005
RJFS 230100Z 07003KT 360V110 8000 -SHRA FEW010 SCT015 BKN035 20/18 Q1005
RJFS 230000Z 11008KT 8000 -SHRA FEW007 SCT010 BKN015 20/18 Q1005
RJFS 222333Z 12009KT 6000 -SHRA FEW005 SCT008 BKN015 20/18 Q1005 RMK 1ST005 4ST008 6CU015 A2969
RJFS 222317Z 16003KT 110V190 5000 SHRA BR FEW005 SCT008 BKN010 21/20 Q1006 RMK 1ST005 3ST008 5CU010 A2971
RJFS 222300Z 23003KT 8000 -SHRA FEW006 SCT010 BKN030 21/20 Q1006
RJFS 222200Z 35004KT 6000 -SHRA FEW006 SCT010 BKN020 20/20 Q1005
RJFS 222100Z 28005KT 7000 -RA FEW020 SCT080 BKN100 20/19 Q1005
RJFS 221900Z 11008KT 9999 -RA FEW005 BKN100 20/19 Q1004
RJFS 221800Z 14007KT 9999 -RA NSC 21/19 Q1005
RJFS 221700Z 22005KT 9999 -RA SCT050 BKN130 23/20 Q1005
RJFS 221600Z 03004KT CAVOK 24/20 Q1005
RJFS 221500Z 03004KT CAVOK 24/20 Q1005
RJFS 221400Z 35003KT CAVOK 23/20 Q1006
RJFS 221200Z 32005KT CAVOK 24/20 Q1007
RJFS 221100Z 27005KT CAVOK 25/19 Q1007
RJFS 221000Z 26007KT CAVOK 26/19 Q1007
RJFS 220900Z 33006KT CAVOK 27/18 Q1006
RJFS 220800Z 28008KT CAVOK 28/17 Q1006
RJFS 220700Z 25006KT CAVOK 28/19 Q1006
RJFS 220600Z 25007KT CAVOK 28/18 Q1006
RJFS 220500Z 25009KT CAVOK 28/19 Q1007
RJFS 220400Z 25008KT 9999 FEW035 BKN/// 29/18 Q1007
RJFS 220300Z VRB01KT 9999 FEW035 SCT/// 29/17 Q1007
RJFS 220200Z 01005KT 290V050 9999 FEW040 SCT/// 28/18 Q1008
RJFS 220100Z 02003KT 260V070 9999 FEW035 SCT/// 26/20 Q1009
RJFS 220000Z 36004KT 310V050 9999 FEW030 BKN/// 24/20 Q1009
RJFS 212300Z 03003KT 320V080 9000 FEW025 BKN/// 23/20 Q1009
RJFS 212200Z 03003KT 8000 FEW020 BKN/// 21/19 Q1009
RJFS 212100Z 06005KT 8000 FEW010 SCT020 BKN/// 20/19 Q1009
RJFS 211900Z 06004KT 9999 FEW010 20/19 Q1009
RJFS 211800Z 07003KT 040V100 9999 FEW040 SCT/// 20/19 Q1008
RJFS 211700Z 10004KT 9999 FEW040 21/20 Q1008
RJFS 211600Z 12007KT 9999 FEW040 SCT/// 22/21 Q1009
RJFS 211500Z 08003KT 9999 FEW040 SCT/// 22/20 Q1009
RJFS 211400Z 11003KT 340V150 9999 FEW040 21/20 Q1009
RJFS 211200Z 21005KT 9999 FEW040 24/22 Q1008
RJFS 211100Z 21008KT 9999 FEW040 24/22 Q1007
RJFS 211000Z 20010KT 9999 FEW040 BKN/// 25/22 Q1007
RJFS 210900Z 19014KT 9999 FEW040 SCT/// 25/21 Q1006
RJFS 210800Z 18014KT 9999 FEW030 SCT/// 26/21 Q1006